Shell, Wyoming
Current Conditions -  °F | °C
As of 1:53 AM on Wednesday 22 Oct 2014 (Local Time) from KGEY Reporting Station
Clear Clear  
Wind Chill: 37°   Ceiling: Unl
Heat Index: 41°   Visibility: 10mi
Dew Point: 24°   Wind: 6mph
Humidity: 51%   Direction: 110°ESE
Pressure: 29.96"   Gusts: NA
Location:  44.54°N, 107.78°W
Report Text: KGEY 220753Z AUTO 11005KT 10SM CLR 05/M04 A2996 RMK AO2 SLP131 T00501044
Loading
Personal Weather Stations






























Interactive Weather Map
Tropical Storm Tracking
New forecast layout! Learn more

10-Day Weather Forecast

Advertisements
Track Severe Weather on mobile